Two-piece half-shell clamping

KTS / KTE / KTA / divided (two-piece)

The rigid couplings are used when there is no displacement or misalignment of the shafts to be connected. Divided KTS/ KTE

  • Maximum torque up to 5000Nm, Speed up to 8000rpm
  • Inner-Ø up to 80mm, Special designs on request
  • In stock, Top prices from CHF 15.20
  • Description
  • Downloads
  • Inquiry

KTS (Half-shell clamping, steel)
KTE (Half-shell clamping, stainless steel)
KTA (Half-shell clamping, aluminium)

Features

• Torsionally stiff and backlash-free
• Wear- and maintenance-free
• Compact design
• Easy mounting
• No damage to the shaft
• With screw lock
• Bright finish
• On request with keyway DIN6885/1
• Temperature range -40°C to +175°C
• Maximum speed up to 8'000 rpm
• Also available in aluminium if required
• Various options, special designs and other dimensions available on request!

Product Inquiry


Product


Technical specifications, properties, environmental influences, etc.

This information is important for the design of the product. If it is an order, they serve to verify your product choice.

Article Nr Designation Material Max. Torque [Nm] Outside diameter [mm] Inside diameter [mm] Length [mm] Availability Price Unit of measure Files Add to cart Add to wishlist
1000105237 KTS-6Steel3018630Available CHF 15,20 pcs
1000105238 KTS-8Steel5024835Available CHF 17,40 pcs
1000105225 KTS-10Steel100291045Available CHF 18,50 pcs
1000105226 KTS-12Steel105291245Available CHF 18,70 pcs
1000105227 KTS-14Steel180341450Available CHF 21,20 pcs
1000105228 KTS-15Steel190341550Available CHF 21,30 pcs
1000105229 KTS-16Steel200341650Available CHF 21,60 pcs
1000105230 KTS-17Steel210341750Available CHF 21,70 pcs
1000105231 KTS-19Steel300421965Available CHF 25,80 pcs
1000105232 KTS-20Steel350422065Available CHF 26,40 pcs
1000105233 KTS-25Steel400452575Available CHF 30,10 pcs
1000105234 KTS-30Steel475533083Available CHF 35,30 pcs
1000107615 KTS-35Steel1100673595Unavailable CHF 57,10 pcs
1000105235 KTS-40Steel13007740108Available CHF 61,40 pcs
1000105236 KTS-50Steel22008550124Available CHF 81,20 pcs
1000107616 KTS-60Steel300010060150Unavailable CHF 313,80 pcs
1000107617 KTS-70Steel400012270220Unavailable CHF 686,00 pcs
1000107618 KTS-80Steel500014080220Unavailable CHF 927,20 pcs
1000105223 KTE-6Stainless steel1218630Available CHF 27,80 pcs
1000105224 KTE-8Stainless steel1824835Available CHF 30,60 pcs
1000105212 KTE-10Stainless steel30291045Available CHF 35,30 pcs
1000105213 KTE-12Stainless steel36291245Available CHF 35,70 pcs
1000105214 KTE-14Stainless steel67341450Available CHF 42,30 pcs
1000105215 KTE-15Stainless steel72341550Available CHF 42,60 pcs
1000105216 KTE-16Stainless steel77341650Available CHF 43,00 pcs
1000105217 KTE-17Stainless steel79341750Available CHF 43,30 pcs
1000105218 KTE-19Stainless steel130421965Available CHF 50,40 pcs
1000105219 KTE-20Stainless steel137422065Available CHF 52,40 pcs
1000107429 KTE-25Edelstahl171452575Unavailable CHF 74,50 pcs
1000105220 KTE-30Stainless steel206533083Available CHF 81,20 pcs
1000107627 KTE-35Edelstahl438673595Unavailable CHF 135,40 pcs
1000105221 KTE-40Stainless steel4457740108Available CHF 160,50 pcs
1000105222 KTE-50Stainless steel10008550124Available CHF 243,50 pcs
1000107628 KTE-60Edelstahl110010060150Unavailable CHF 544,40 pcs
1000107629 KTE-70Edelstahl160012270220Unavailable CHF 927,20 pcs
1000107630 KTE-80Edelstahl190014080220Unavailable CHF 1.070,50 pcs
1000105210 KTA-6Aluminium3018630Available CHF 17,00 pcs
1000105211 KTA-8Aluminium5024835Available CHF 19,30 pcs
1000105198 KTA-10Aluminium100291045Available CHF 20,20 pcs
1000105199 KTA-12Aluminium105291245Available CHF 20,70 pcs
1000105200 KTA-14Aluminium180341450Available CHF 23,50 pcs
1000105201 KTA-15Aluminium190341550Available CHF 23,80 pcs
1000105202 KTA-16Aluminium200341650Available CHF 24,00 pcs
1000105203 KTA-17Aluminium210341750Available CHF 24,10 pcs
1000105204 KTA-19Aluminium300421965Available CHF 29,40 pcs
1000105205 KTA-20Aluminium350422065Available CHF 29,50 pcs
1000105206 KTA-25Aluminium400452575Available CHF 35,10 pcs
1000105207 KTA-30Aluminium480533083Available CHF 62,40 pcs
1000107631 KTA-35Aluminium1100673595Unavailable CHF 78,70 pcs
1000105208 KTA-40Aluminium13007740108Available CHF 93,60 pcs
1000105209 KTA-50Aluminium22008550124Available CHF 126,60 pcs
1000107632 KTA-60Aluminium300010060150Unavailable CHF 0,00 pcs
1000107633 KTA-70Aluminium400012270220Unavailable CHF 0,00 pcs
1000107634 KTA-80Aluminium500014080220Unavailable CHF 0,00 pcs
was successfully added yo your cart
was successfully added yo your inquiry list
Go to inquiry list

Prices are non-binding recommended retail prices, excl. VAT. For further information on our web store, please see "Web store details".